Time;durP1;ratioP1;P1;durP2;ratioP2;P2;SDS_P1;SDS_P2;PMS_P1;PMS_P2;Temp;Humidity;BMP_temperature;BMP_pressure;BME280_temperature;BME280_humidity;BME280_pressure;Samples;Min_cycle;Max_cycle;Signal;HPM_P1;HPM_P2
2022/07/20 00:00:49;;;;;;;;;;;27.70;31.90;;;;;;1487793;78;1961;-55
2022/07/20 00:02:51;;;;;;;;;;;27.60;31.90;;;;;;1487742;78;1130;-59
2022/07/20 00:04:52;;;;;;;;;;;27.60;31.90;;;;;;1488537;78;758;-56
2022/07/20 00:06:55;;;;;;;;;;;27.70;31.80;;;;;;1500615;78;743;-57
2022/07/20 00:11:20;;;;;;;;;;;27.60;31.90;;;;;;1488312;78;1645;-59
2022/07/20 00:13:22;;;;;;;;;;;27.60;31.90;;;;;;1483629;78;1090;-58
2022/07/20 00:15:23;;;;;;;;;;;27.60;32.00;;;;;;1484659;78;660;-58
2022/07/20 00:17:25;;;;;;;;;;;27.60;32.00;;;;;;1490173;78;677;-59
2022/07/20 00:19:27;;;;;;;;;;;27.70;32.00;;;;;;1494102;78;1937;-57
2022/07/20 00:21:29;;;;;;;;;;;27.60;32.00;;;;;;1481788;78;1137;-59
2022/07/20 00:23:31;;;;;;;;;;;27.60;31.90;;;;;;1487160;78;827;-58
2022/07/20 00:25:33;;;;;;;;;;;27.60;32.00;;;;;;1487354;78;1563;-57
2022/07/20 00:27:35;;;;;;;;;;;27.60;31.90;;;;;;1486829;78;682;-59
2022/07/20 00:29:36;;;;;;;;;;;27.50;31.90;;;;;;1486084;78;707;-57
2022/07/20 00:31:38;;;;;;;;;;;27.60;31.90;;;;;;1486806;78;1143;-55
2022/07/20 00:33:40;;;;;;;;;;;27.50;31.90;;;;;;1502781;73;229628;-66
2022/07/20 00:35:42;;;;;;;;;;;27.60;32.00;;;;;;1533676;76;673;-66
2022/07/20 00:37:44;;;;;;;;;;;27.50;32.00;;;;;;1540004;76;656;-67
2022/07/20 00:39:48;;;;;;;;;;;27.60;32.00;;;;;;1538801;76;1915;-68
2022/07/20 00:41:49;;;;;;;;;;;27.50;32.00;;;;;;1539895;76;624;-68
2022/07/20 00:43:55;;;;;;;;;;;27.50;32.00;;;;;;1529092;75;1190;-66
2022/07/20 00:45:57;;;;;;;;;;;27.60;32.00;;;;;;1545144;75;700;-68
2022/07/20 00:47:59;;;;;;;;;;;27.50;32.00;;;;;;1551991;74;641;-67
2022/07/20 00:50:00;;;;;;;;;;;27.60;32.00;;;;;;1545809;74;648;-69
2022/07/20 00:52:02;;;;;;;;;;;27.50;32.10;;;;;;1545897;74;718;-66
2022/07/20 00:54:04;;;;;;;;;;;27.50;32.10;;;;;;1543040;74;1493;-67
2022/07/20 00:56:07;;;;;;;;;;;27.50;32.00;;;;;;1555666;74;676;-68
2022/07/20 00:58:08;;;;;;;;;;;27.60;32.10;;;;;;1554255;74;714;-68
2022/07/20 01:00:12;;;;;;;;;;;27.60;32.10;;;;;;1549335;74;1931;-68
2022/07/20 01:02:14;;;;;;;;;;;27.60;32.10;;;;;;1545399;74;673;-67
2022/07/20 01:04:15;;;;;;;;;;;27.50;32.10;;;;;;1547625;74;1123;-68
2022/07/20 01:06:17;;;;;;;;;;;27.60;32.10;;;;;;1553146;75;949;-67
2022/07/20 01:08:19;;;;;;;;;;;27.60;32.10;;;;;;1547493;74;1279;-67
2022/07/20 01:10:21;;;;;;;;;;;27.50;32.10;;;;;;1551402;74;689;-67
2022/07/20 01:12:23;;;;;;;;;;;27.50;32.10;;;;;;1564967;74;660;-67
2022/07/20 01:14:25;;;;;;;;;;;27.60;32.20;;;;;;1546646;74;1596;-68
2022/07/20 01:16:27;;;;;;;;;;;27.60;32.10;;;;;;1549742;75;778;-68
2022/07/20 01:18:29;;;;;;;;;;;27.60;32.10;;;;;;1558170;75;710;-67
2022/07/20 01:20:30;;;;;;;;;;;27.60;32.10;;;;;;1568339;74;1933;-67
2022/07/20 01:22:32;;;;;;;;;;;27.50;32.10;;;;;;1555843;74;1458;-68
2022/07/20 01:24:34;;;;;;;;;;;27.50;32.10;;;;;;1562334;74;1268;-68
2022/07/20 01:26:37;;;;;;;;;;;27.50;32.10;;;;;;1551373;75;687;-68
2022/07/20 01:28:39;;;;;;;;;;;27.50;32.10;;;;;;1546210;75;664;-68
2022/07/20 01:30:41;;;;;;;;;;;27.50;32.10;;;;;;1537529;74;692;-66
2022/07/20 01:32:43;;;;;;;;;;;27.60;32.10;;;;;;1552248;75;717;-66
2022/07/20 01:34:45;;;;;;;;;;;27.60;32.10;;;;;;1548821;74;1161;-67
2022/07/20 01:36:47;;;;;;;;;;;27.60;32.20;;;;;;1557688;74;1478;-67
2022/07/20 01:38:49;;;;;;;;;;;27.60;32.20;;;;;;1549180;74;675;-66
2022/07/20 01:40:50;;;;;;;;;;;27.50;32.10;;;;;;1551096;74;1938;-66
2022/07/20 01:42:52;;;;;;;;;;;27.60;32.10;;;;;;1553200;74;739;-67
2022/07/20 01:44:54;;;;;;;;;;;27.60;32.10;;;;;;1555924;75;1125;-66
2022/07/20 01:46:56;;;;;;;;;;;27.60;32.20;;;;;;1550006;74;677;-66
2022/07/20 01:48:58;;;;;;;;;;;27.60;32.20;;;;;;1563972;75;659;-66
2022/07/20 01:51:00;;;;;;;;;;;27.50;32.20;;;;;;1547066;75;1500;-66
2022/07/20 01:53:02;;;;;;;;;;;27.50;32.30;;;;;;1551893;75;649;-67
2022/07/20 01:55:04;;;;;;;;;;;27.60;32.20;;;;;;1565351;75;1148;-67
2022/07/20 01:57:06;;;;;;;;;;;27.50;32.20;;;;;;1545213;74;683;-68
2022/07/20 01:59:07;;;;;;;;;;;27.50;32.30;;;;;;1557083;75;673;-67
2022/07/20 02:01:09;;;;;;;;;;;27.50;32.30;;;;;;1549616;74;1923;-66
2022/07/20 02:03:11;;;;;;;;;;;27.60;32.20;;;;;;1551867;74;1154;-66
2022/07/20 02:05:13;;;;;;;;;;;27.50;32.30;;;;;;1556102;74;1483;-66
2022/07/20 02:07:15;;;;;;;;;;;27.50;32.30;;;;;;1561673;75;707;-67
2022/07/20 02:09:17;;;;;;;;;;;27.50;32.30;;;;;;1554506;74;670;-66
2022/07/20 02:11:19;;;;;;;;;;;27.50;32.30;;;;;;1553039;74;714;-67
2022/07/20 02:13:21;;;;;;;;;;;27.40;32.30;;;;;;1548960;74;1136;-66
2022/07/20 02:17:42;;;;;;;;;;;27.50;32.30;;;;;;1565185;75;1779;-65
2022/07/20 02:19:44;;;;;;;;;;;27.40;32.40;;;;;;1554674;74;1927;-67
2022/07/20 02:21:46;;;;;;;;;;;27.50;32.40;;;;;;1558200;75;678;-67
2022/07/20 02:23:48;;;;;;;;;;;27.50;32.40;;;;;;1547965;74;1153;-66
2022/07/20 02:25:50;;;;;;;;;;;27.40;32.40;;;;;;1548204;74;719;-64
2022/07/20 02:27:51;;;;;;;;;;;27.50;32.30;;;;;;1549430;74;628;-66
2022/07/20 02:29:53;;;;;;;;;;;27.50;32.30;;;;;;1552643;74;730;-66
2022/07/20 02:31:55;;;;;;;;;;;27.40;32.40;;;;;;1551672;74;655;-67
2022/07/20 02:33:57;;;;;;;;;;;27.40;32.40;;;;;;1547828;74;1134;-67
2022/07/20 02:35:59;;;;;;;;;;;27.40;32.30;;;;;;1551959;74;808;-68
2022/07/20 02:38:01;;;;;;;;;;;27.50;32.30;;;;;;1552099;74;844;-66
2022/07/20 02:40:03;;;;;;;;;;;27.50;32.30;;;;;;1555747;75;1939;-64
2022/07/20 02:42:05;;;;;;;;;;;27.50;32.30;;;;;;1557936;74;714;-67
2022/07/20 02:44:07;;;;;;;;;;;27.50;32.40;;;;;;1548716;74;1139;-67
2022/07/20 02:46:09;;;;;;;;;;;27.50;32.40;;;;;;1554800;75;1481;-67
2022/07/20 02:48:11;;;;;;;;;;;27.50;32.40;;;;;;1555177;74;699;-66
2022/07/20 02:50:13;;;;;;;;;;;27.40;32.30;;;;;;1553294;75;678;-67
2022/07/20 02:52:15;;;;;;;;;;;27.50;32.30;;;;;;1549048;74;630;-64
2022/07/20 02:54:17;;;;;;;;;;;27.50;32.30;;;;;;1554287;74;1120;-66
2022/07/20 02:56:18;;;;;;;;;;;27.50;32.30;;;;;;1555533;74;697;-66
2022/07/20 02:58:20;;;;;;;;;;;27.50;32.30;;;;;;1560024;75;677;-68
2022/07/20 03:00:22;;;;;;;;;;;27.50;32.40;;;;;;1561051;75;1928;-66
2022/07/20 03:02:24;;;;;;;;;;;27.40;32.50;;;;;;1561721;75;715;-66
2022/07/20 03:04:26;;;;;;;;;;;27.50;32.50;;;;;;1556655;74;1273;-66
2022/07/20 03:06:28;;;;;;;;;;;27.50;32.40;;;;;;1552061;74;686;-67
2022/07/20 03:08:30;;;;;;;;;;;27.50;32.40;;;;;;1551199;74;624;-67
2022/07/20 03:10:32;;;;;;;;;;;27.50;32.30;;;;;;1560745;74;673;-68
2022/07/20 03:12:34;;;;;;;;;;;27.40;32.40;;;;;;1569850;75;635;-67
2022/07/20 03:14:36;;;;;;;;;;;27.50;32.40;;;;;;1550992;74;1540;-68
2022/07/20 03:16:38;;;;;;;;;;;27.50;32.50;;;;;;1559644;74;664;-66
2022/07/20 03:18:39;;;;;;;;;;;27.50;32.40;;;;;;1546852;74;688;-66
2022/07/20 03:20:41;;;;;;;;;;;27.50;32.40;;;;;;1546274;74;1925;-69
2022/07/20 03:22:43;;;;;;;;;;;27.50;32.30;;;;;;1545153;75;921;-67
2022/07/20 03:24:45;;;;;;;;;;;27.40;32.30;;;;;;1551723;74;1102;-67
2022/07/20 03:26:47;;;;;;;;;;;27.50;32.30;;;;;;1558118;75;699;-68
2022/07/20 03:28:49;;;;;;;;;;;27.40;32.30;;;;;;1550685;75;1503;-68
2022/07/20 03:30:51;;;;;;;;;;;27.50;32.40;;;;;;1560388;75;698;-66
2022/07/20 03:32:54;;;;;;;;;;;27.40;32.40;;;;;;1561776;75;698;-67
2022/07/20 03:34:55;;;;;;;;;;;27.50;32.50;;;;;;1547262;74;1089;-66
2022/07/20 03:36:57;;;;;;;;;;;27.40;32.50;;;;;;1551526;74;717;-66
2022/07/20 03:38:59;;;;;;;;;;;27.50;32.50;;;;;;1564423;74;768;-68
2022/07/20 03:41:01;;;;;;;;;;;27.50;32.50;;;;;;1567461;74;1935;-67
2022/07/20 03:43:03;;;;;;;;;;;27.50;32.50;;;;;;1554851;74;1561;-66
2022/07/20 03:45:05;;;;;;;;;;;27.40;32.60;;;;;;1569014;74;1160;-67
2022/07/20 03:47:07;;;;;;;;;;;27.50;32.50;;;;;;1550633;74;679;-66
2022/07/20 03:49:09;;;;;;;;;;;27.50;32.50;;;;;;1549057;74;631;-66
2022/07/20 03:51:11;;;;;;;;;;;27.50;32.50;;;;;;1538315;74;709;-66
2022/07/20 03:53:13;;;;;;;;;;;27.50;32.50;;;;;;1552646;74;1146;-66
2022/07/20 03:55:15;;;;;;;;;;;27.40;32.50;;;;;;1547607;74;648;-66
2022/07/20 03:57:17;;;;;;;;;;;27.40;32.60;;;;;;1552693;74;1456;-67
2022/07/20 03:59:19;;;;;;;;;;;27.40;32.50;;;;;;1560956;74;710;-66
2022/07/20 04:01:21;;;;;;;;;;;27.40;32.60;;;;;;1555901;74;1917;-67
2022/07/20 04:03:22;;;;;;;;;;;27.40;32.60;;;;;;1540590;74;1184;-67
2022/07/20 04:05:24;;;;;;;;;;;27.40;32.60;;;;;;1548135;74;675;-67
2022/07/20 04:07:26;;;;;;;;;;;27.40;32.70;;;;;;1568566;75;676;-67
2022/07/20 04:10:10;;;;;;;;;;;27.40;32.70;;;;;;1555314;74;728;-67
2022/07/20 04:11:35;;;;;;;;;;;27.40;32.70;;;;;;1523796;75;1560;-68
2022/07/20 04:13:37;;;;;;;;;;;27.40;32.70;;;;;;1551227;74;1122;-67
2022/07/20 04:15:39;;;;;;;;;;;27.40;32.70;;;;;;1549501;74;670;-68
2022/07/20 04:17:44;;;;;;;;;;;27.40;32.80;;;;;;1549750;74;669;-67
2022/07/20 04:19:46;;;;;;;;;;;27.40;32.80;;;;;;1548675;75;794;-67
2022/07/20 04:21:48;;;;;;;;;;;27.40;32.80;;;;;;1545086;74;1956;-66
2022/07/20 04:23:50;;;;;;;;;;;27.40;32.80;;;;;;1537859;75;1166;-67
2022/07/20 04:25:52;;;;;;;;;;;27.40;32.80;;;;;;1547559;74;1486;-68
2022/07/20 04:27:54;;;;;;;;;;;27.40;32.80;;;;;;1548012;75;653;-67
2022/07/20 04:29:55;;;;;;;;;;;27.40;32.90;;;;;;1553455;74;628;-68
2022/07/20 04:31:57;;;;;;;;;;;27.40;32.80;;;;;;1541408;74;668;-68
2022/07/20 04:33:59;;;;;;;;;;;27.40;33.00;;;;;;1552555;74;1145;-67
2022/07/20 04:36:01;;;;;;;;;;;27.40;33.00;;;;;;1547171;75;727;-67
2022/07/20 04:38:03;;;;;;;;;;;27.40;32.90;;;;;;1544653;74;654;-66
2022/07/20 04:40:05;;;;;;;;;;;27.40;32.90;;;;;;1548742;74;1572;-65
2022/07/20 04:42:07;;;;;;;;;;;27.50;33.00;;;;;;1543058;74;1915;-67
2022/07/20 04:44:09;;;;;;;;;;;27.40;33.00;;;;;;1544846;75;1161;-68
2022/07/20 04:46:11;;;;;;;;;;;27.50;33.10;;;;;;1546217;75;697;-67
2022/07/20 04:48:12;;;;;;;;;;;27.40;33.10;;;;;;1543947;75;710;-67
2022/07/20 04:50:14;;;;;;;;;;;27.50;33.00;;;;;;1538400;74;640;-67
2022/07/20 04:52:16;;;;;;;;;;;27.60;33.10;;;;;;1558536;74;631;-67
2022/07/20 04:54:18;;;;;;;;;;;27.50;33.10;;;;;;1553775;74;1489;-66
2022/07/20 04:56:20;;;;;;;;;;;27.50;33.00;;;;;;1565086;74;658;-66
2022/07/20 04:58:22;;;;;;;;;;;27.50;33.10;;;;;;1556703;75;661;-65
2022/07/20 05:00:24;;;;;;;;;;;27.50;33.30;;;;;;1543898;75;723;-68
2022/07/20 05:02:26;;;;;;;;;;;27.50;33.30;;;;;;1553184;74;2043;-66
2022/07/20 05:04:27;;;;;;;;;;;27.50;33.40;;;;;;1555437;74;1192;-67
2022/07/20 05:06:29;;;;;;;;;;;27.50;33.40;;;;;;1553674;75;685;-66
2022/07/20 05:08:31;;;;;;;;;;;27.60;33.50;;;;;;1549589;75;1594;-65
2022/07/20 05:10:33;;;;;;;;;;;27.50;33.50;;;;;;1553262;75;643;-66
2022/07/20 05:12:35;;;;;;;;;;;27.50;33.50;;;;;;1558654;75;664;-65
2022/07/20 05:14:37;;;;;;;;;;;27.50;33.70;;;;;;1544171;74;1113;-66
2022/07/20 05:16:39;;;;;;;;;;;27.50;33.70;;;;;;1553927;75;670;-64
2022/07/20 05:18:41;;;;;;;;;;;27.60;33.80;;;;;;1561951;74;719;-64
2022/07/20 05:20:42;;;;;;;;;;;27.60;33.90;;;;;;1547105;74;1464;-64
2022/07/20 05:22:44;;;;;;;;;;;27.60;33.80;;;;;;1560589;74;1932;-64
2022/07/20 05:24:46;;;;;;;;;;;27.70;33.80;;;;;;1546063;74;1125;-64
2022/07/20 05:26:48;;;;;;;;;;;27.70;34.00;;;;;;1562627;75;651;-66
2022/07/20 05:28:50;;;;;;;;;;;27.90;33.70;;;;;;1562307;74;593;-65
2022/07/20 05:30:52;;;;;;;;;;;27.90;33.70;;;;;;1541449;75;617;-65
2022/07/20 05:32:54;;;;;;;;;;;27.90;33.60;;;;;;1549035;75;694;-65
2022/07/20 05:34:56;;;;;;;;;;;27.80;33.70;;;;;;1545991;75;1509;-64
2022/07/20 05:36:57;;;;;;;;;;;27.80;33.80;;;;;;1558480;74;732;-65
2022/07/20 05:38:59;;;;;;;;;;;27.70;33.80;;;;;;1550645;74;626;-62
2022/07/20 05:41:01;;;;;;;;;;;27.70;34.00;;;;;;1534117;74;2092;-64
2022/07/20 05:43:03;;;;;;;;;;;27.60;34.10;;;;;;1552923;75;671;-64
2022/07/20 05:45:05;;;;;;;;;;;27.70;34.20;;;;;;1559126;74;1145;-66
2022/07/20 05:47:08;;;;;;;;;;;27.60;34.20;;;;;;1556974;74;648;-66
2022/07/20 05:49:10;;;;;;;;;;;27.60;34.40;;;;;;1562039;74;1473;-66
2022/07/20 05:51:12;;;;;;;;;;;27.60;34.40;;;;;;1531372;75;676;-66
2022/07/20 05:53:14;;;;;;;;;;;27.60;34.40;;;;;;1564644;75;1136;-66
2022/07/20 05:55:16;;;;;;;;;;;27.60;34.40;;;;;;1558031;74;633;-66
2022/07/20 05:57:18;;;;;;;;;;;27.50;34.50;;;;;;1557133;74;650;-65
2022/07/20 05:59:20;;;;;;;;;;;27.50;34.50;;;;;;1552665;75;743;-66
2022/07/20 06:01:22;;;;;;;;;;;27.60;34.60;;;;;;1553676;74;1938;-67
2022/07/20 06:03:23;;;;;;;;;;;27.50;34.70;;;;;;1555841;74;1514;-67
2022/07/20 06:05:25;;;;;;;;;;;27.40;34.70;;;;;;1560045;74;677;-67
2022/07/20 06:07:27;;;;;;;;;;;27.40;34.70;;;;;;1571695;75;641;-65
2022/07/20 06:09:29;;;;;;;;;;;27.40;34.80;;;;;;1564552;74;706;-66
2022/07/20 06:11:31;;;;;;;;;;;27.50;34.80;;;;;;1551709;74;658;-65
2022/07/20 06:13:33;;;;;;;;;;;27.40;34.80;;;;;;1544897;75;1117;-67
2022/07/20 06:15:35;;;;;;;;;;;27.50;35.40;;;;;;1545946;75;670;-66
2022/07/20 06:17:37;;;;;;;;;;;27.50;35.80;;;;;;1554451;74;1515;-65
2022/07/20 06:19:39;;;;;;;;;;;27.60;35.70;;;;;;1558695;74;697;-66
2022/07/20 06:21:41;;;;;;;;;;;27.70;35.60;;;;;;1558887;74;1941;-66
2022/07/20 06:23:43;;;;;;;;;;;27.70;35.70;;;;;;1538170;74;1146;-65
2022/07/20 06:25:45;;;;;;;;;;;27.80;35.70;;;;;;1552011;75;678;-65
2022/07/20 06:27:46;;;;;;;;;;;27.80;36.30;;;;;;1544994;75;734;-66
2022/07/20 06:29:48;;;;;;;;;;;27.90;36.00;;;;;;1563966;74;752;-65
2022/07/20 06:31:51;;;;;;;;;;;27.90;37.80;;;;;;1542291;74;1385;-64
2022/07/20 06:33:53;;;;;;;;;;;28.00;36.80;;;;;;1552762;73;3092;-67
2022/07/20 06:35:55;;;;;;;;;;;28.00;37.00;;;;;;1569985;74;530;-68
2022/07/20 06:37:57;;;;;;;;;;;28.00;36.80;;;;;;1569063;74;654;-68
2022/07/20 06:39:59;;;;;;;;;;;28.10;36.80;;;;;;1570261;74;674;-67
2022/07/20 06:42:01;;;;;;;;;;;28.20;37.00;;;;;;1560592;74;1944;-68
2022/07/20 06:44:03;;;;;;;;;;;28.20;36.60;;;;;;1567858;74;1242;-67
2022/07/20 06:46:04;;;;;;;;;;;28.30;36.50;;;;;;1563326;75;1484;-68
2022/07/20 06:48:06;;;;;;;;;;;28.30;36.30;;;;;;1564794;74;633;-68
2022/07/20 06:50:08;;;;;;;;;;;28.40;36.20;;;;;;1566179;74;644;-67
2022/07/20 06:52:10;;;;;;;;;;;28.40;36.10;;;;;;1568297;74;763;-67
2022/07/20 06:54:12;;;;;;;;;;;28.50;36.00;;;;;;1557780;74;1153;-67
2022/07/20 06:56:14;;;;;;;;;;;28.60;35.80;;;;;;1557353;74;665;-67
2022/07/20 06:58:16;;;;;;;;;;;28.60;35.50;;;;;;1558162;74;582;-68
2022/07/20 07:00:18;;;;;;;;;;;28.70;35.20;;;;;;1569436;74;1316;-68
2022/07/20 07:02:20;;;;;;;;;;;28.70;35.20;;;;;;1564097;74;1937;-68
2022/07/20 07:04:22;;;;;;;;;;;28.80;35.10;;;;;;1569417;74;1210;-68
2022/07/20 07:06:27;;;;;;;;;;;28.80;34.90;;;;;;1563408;74;530;-68
2022/07/20 07:08:27;;;;;;;;;;;28.80;34.70;;;;;;1563369;74;1646;-67
2022/07/20 07:10:29;;;;;;;;;;;28.90;34.50;;;;;;1555819;74;698;-68
2022/07/20 07:12:31;;;;;;;;;;;28.90;34.50;;;;;;1565836;74;753;-67
2022/07/20 07:14:33;;;;;;;;;;;29.00;34.90;;;;;;1560773;74;1491;-67
2022/07/20 07:16:35;;;;;;;;;;;29.00;34.90;;;;;;1554657;74;732;-67
2022/07/20 07:18:37;;;;;;;;;;;29.00;34.70;;;;;;1568458;74;653;-68
2022/07/20 07:20:39;;;;;;;;;;;29.00;34.70;;;;;;1563068;74;600;-69
2022/07/20 07:22:41;;;;;;;;;;;29.10;34.60;;;;;;1566706;74;1976;-68
2022/07/20 07:24:43;;;;;;;;;;;29.10;34.70;;;;;;1566804;74;1184;-68
2022/07/20 07:26:45;;;;;;;;;;;29.10;34.50;;;;;;1567665;74;667;-71
2022/07/20 07:28:47;;;;;;;;;;;29.10;34.60;;;;;;1556576;74;1459;-69
2022/07/20 07:30:51;;;;;;;;;;;29.10;34.60;;;;;;1566864;74;700;-69
2022/07/20 07:32:53;;;;;;;;;;;29.20;34.50;;;;;;1575631;74;646;-68
2022/07/20 07:34:55;;;;;;;;;;;29.20;34.60;;;;;;1571635;74;1152;-68
2022/07/20 07:36:57;;;;;;;;;;;29.20;34.40;;;;;;1572039;74;814;-68
2022/07/20 07:38:59;;;;;;;;;;;29.20;34.30;;;;;;1563242;74;712;-68
2022/07/20 07:41:01;;;;;;;;;;;29.30;34.20;;;;;;1559143;74;725;-69
2022/07/20 07:43:03;;;;;;;;;;;29.20;34.20;;;;;;1567569;74;1919;-68
2022/07/20 07:45:07;;;;;;;;;;;29.20;34.20;;;;;;1567065;74;1148;-68
2022/07/20 07:47:08;;;;;;;;;;;29.20;34.20;;;;;;1565073;74;1884;-70
2022/07/20 07:49:10;;;;;;;;;;;29.20;34.20;;;;;;1575532;74;665;-68
2022/07/20 07:51:12;;;;;;;;;;;29.20;34.20;;;;;;1571406;74;655;-70
2022/07/20 07:53:14;;;;;;;;;;;29.20;34.10;;;;;;1571720;74;660;-70
2022/07/20 07:55:16;;;;;;;;;;;29.20;33.90;;;;;;1574965;74;1219;-71
2022/07/20 07:57:18;;;;;;;;;;;29.30;33.90;;;;;;1566391;74;1605;-68
2022/07/20 07:59:20;;;;;;;;;;;29.30;34.00;;;;;;1569826;74;579;-69
2022/07/20 08:01:21;;;;;;;;;;;29.20;34.10;;;;;;1565969;74;756;-68
2022/07/20 08:03:23;;;;;;;;;;;29.30;34.10;;;;;;1565928;74;1959;-67
2022/07/20 08:05:25;;;;;;;;;;;29.30;34.00;;;;;;1572516;74;1136;-67
2022/07/20 08:07:27;;;;;;;;;;;29.30;34.10;;;;;;1567705;74;873;-68
2022/07/20 08:09:29;;;;;;;;;;;29.30;34.00;;;;;;1564012;74;1542;-68
2022/07/20 08:11:31;;;;;;;;;;;29.40;34.00;;;;;;1557599;75;642;-67
2022/07/20 08:13:33;;;;;;;;;;;29.40;33.80;;;;;;1566687;74;1103;-65
2022/07/20 08:15:35;;;;;;;;;;;29.40;33.80;;;;;;1559667;74;714;-67
2022/07/20 08:17:36;;;;;;;;;;;29.40;33.60;;;;;;1565123;74;690;-66
2022/07/20 08:19:38;;;;;;;;;;;29.50;33.60;;;;;;1560998;74;872;-69
2022/07/20 08:21:40;;;;;;;;;;;29.50;33.60;;;;;;1521483;77;671;-67
2022/07/20 08:23:42;;;;;;;;;;;29.40;33.60;;;;;;1508309;77;1945;-67
2022/07/20 08:25:44;;;;;;;;;;;29.50;33.50;;;;;;1502968;77;632;-68
2022/07/20 08:27:46;;;;;;;;;;;29.50;33.50;;;;;;1536755;76;658;-68
2022/07/20 08:29:48;;;;;;;;;;;29.50;33.40;;;;;;1511779;76;618;-67
2022/07/20 08:31:50;;;;;;;;;;;29.40;33.40;;;;;;1539160;76;647;-68
2022/07/20 08:33:52;;;;;;;;;;;29.50;33.60;;;;;;1540872;76;1135;-68
2022/07/20 08:35:54;;;;;;;;;;;29.30;33.60;;;;;;1514390;77;771;-68
2022/07/20 08:37:56;;;;;;;;;;;29.30;33.60;;;;;;1512211;77;1573;-67
2022/07/20 08:39:57;;;;;;;;;;;29.30;33.70;;;;;;1518213;76;624;-67
2022/07/20 08:41:59;;;;;;;;;;;29.40;33.60;;;;;;1535337;75;722;-67
2022/07/20 08:44:01;;;;;;;;;;;29.30;33.70;;;;;;1525492;75;1953;-67
2022/07/20 08:46:03;;;;;;;;;;;29.30;33.70;;;;;;1538764;76;691;-68
2022/07/20 08:48:11;;;;;;;;;;;29.30;33.70;;;;;;1524981;75;761;-68
2022/07/20 08:50:09;;;;;;;;;;;29.30;33.70;;;;;;1533665;75;1642;-67
2022/07/20 08:52:11;;;;;;;;;;;29.30;33.80;;;;;;1530247;75;1555;-67
2022/07/20 08:54:13;;;;;;;;;;;29.30;33.90;;;;;;1534337;76;1134;-66
2022/07/20 08:56:15;;;;;;;;;;;29.20;33.90;;;;;;1535494;75;640;-66
2022/07/20 08:58:17;;;;;;;;;;;29.20;33.90;;;;;;1537431;76;724;-67
2022/07/20 09:00:19;;;;;;;;;;;29.20;34.00;;;;;;1531270;75;647;-67
2022/07/20 09:02:21;;;;;;;;;;;29.20;34.00;;;;;;1506264;77;1945;-67
2022/07/20 09:04:23;;;;;;;;;;;29.20;34.10;;;;;;1505303;77;1171;-67
2022/07/20 09:06:25;;;;;;;;;;;29.20;34.10;;;;;;1519145;77;1507;-66
2022/07/20 09:08:26;;;;;;;;;;;29.20;34.10;;;;;;1497183;79;1427;-68
2022/07/20 09:10:29;;;;;;;;;;;29.20;34.10;;;;;;1524596;77;731;-67
2022/07/20 09:12:31;;;;;;;;;;;29.10;34.20;;;;;;1530742;76;650;-66
2022/07/20 09:14:52;;;;;;;;;;;29.20;34.20;;;;;;1525594;76;1123;-68
2022/07/20 09:16:50;;;;;;;;;;;29.10;34.20;;;;;;1513145;76;1625;-66
2022/07/20 09:18:49;;;;;;;;;;;29.10;34.20;;;;;;1531776;77;1184;-67
2022/07/20 09:20:55;;;;;;;;;;;29.20;34.30;;;;;;1531348;77;1466;-66
2022/07/20 09:23:01;;;;;;;;;;;29.10;34.30;;;;;;1522492;77;1924;-66
2022/07/20 09:25:07;;;;;;;;;;;29.10;34.30;;;;;;1529804;77;1139;-68
2022/07/20 09:27:10;;;;;;;;;;;29.10;34.30;;;;;;1525222;77;1273;-67
2022/07/20 09:29:11;;;;;;;;;;;29.10;34.30;;;;;;1530855;76;764;-67
2022/07/20 09:31:20;;;;;;;;;;;29.00;34.30;;;;;;1528659;76;655;-67
2022/07/20 09:33:31;;;;;;;;;;;29.10;34.30;;;;;;1521914;77;613;-66
2022/07/20 09:35:34;;;;;;;;;;;29.00;34.30;;;;;;1531824;76;1545;-66
2022/07/20 09:37:39;;;;;;;;;;;29.10;34.40;;;;;;1532380;76;834;-67
2022/07/20 09:39:41;;;;;;;;;;;29.00;34.40;;;;;;1532870;77;671;-68
2022/07/20 09:41:47;;;;;;;;;;;29.00;34.40;;;;;;1497261;78;1157;-66
2022/07/20 09:43:49;;;;;;;;;;;29.00;34.40;;;;;;1520154;77;1937;-68
2022/07/20 09:45:53;;;;;;;;;;;29.00;34.50;;;;;;1523306;76;650;-66
2022/07/20 09:48:10;;;;;;;;;;;28.90;33.90;;;;;;1525453;76;2153;-67
2022/07/20 09:50:14;;;;;;;;;;;29.00;34.60;;;;;;1537019;76;743;-66
2022/07/20 09:52:15;;;;;;;;;;;29.00;34.70;;;;;;1526826;76;1417;-66
2022/07/20 09:54:18;;;;;;;;;;;29.00;34.70;;;;;;1537762;76;1144;-67
2022/07/20 09:56:20;;;;;;;;;;;29.00;34.70;;;;;;1520410;76;678;-66
2022/07/20 09:58:22;;;;;;;;;;;29.00;34.70;;;;;;1522229;76;646;-67
2022/07/20 10:00:24;;;;;;;;;;;28.90;34.10;;;;;;1531149;77;645;-67
2022/07/20 10:02:25;;;;;;;;;;;29.00;34.80;;;;;;1520287;76;1565;-67
2022/07/20 10:04:27;;;;;;;;;;;28.90;34.10;;;;;;1519853;76;1925;-67
2022/07/20 10:06:29;;;;;;;;;;;28.90;34.10;;;;;;1522811;76;639;-66
2022/07/20 10:08:31;;;;;;;;;;;28.90;34.20;;;;;;1529986;76;797;-68
2022/07/20 10:10:33;;;;;;;;;;;28.90;34.20;;;;;;1524603;76;776;-66
2022/07/20 10:12:35;;;;;;;;;;;28.80;34.20;;;;;;1528936;77;672;-68
2022/07/20 10:14:37;;;;;;;;;;;28.90;34.10;;;;;;1526050;76;1134;-68
2022/07/20 10:16:49;;;;;;;;;;;28.90;34.10;;;;;;1495149;77;1566;-68
2022/07/20 10:18:52;;;;;;;;;;;28.90;34.10;;;;;;1523967;77;674;-67
2022/07/20 10:20:54;;;;;;;;;;;28.90;34.00;;;;;;1527064;77;624;-68
2022/07/20 10:23:09;;;;;;;;;;;28.90;34.00;;;;;;1525662;77;1940;-67
2022/07/20 10:25:17;;;;;;;;;;;29.00;34.70;;;;;;1488027;77;1169;-67
2022/07/20 10:27:26;;;;;;;;;;;28.90;34.00;;;;;;1531534;76;624;-67
2022/07/20 10:29:32;;;;;;;;;;;28.90;34.00;;;;;;1521061;76;666;-68
2022/07/20 10:31:53;;;;;;;;;;;28.90;34.00;;;;;;1542793;76;1335;-68
2022/07/20 10:33:55;;;;;;;;;;;28.90;33.80;;;;;;1546736;75;1173;-67
2022/07/20 10:36:41;;;;;;;;;;;29.00;34.30;;;;;;1548987;75;642;-67
2022/07/20 10:38:00;;;;;;;;;;;28.90;33.50;;;;;;1532250;75;1447;-67
2022/07/20 10:40:06;;;;;;;;;;;28.90;33.60;;;;;;1537285;76;658;-67
2022/07/20 10:42:25;;;;;;;;;;;28.90;33.60;;;;;;1536855;76;796;-67
2022/07/20 10:44:26;;;;;;;;;;;28.90;33.50;;;;;;1510435;77;1922;-67
2022/07/20 10:46:34;;;;;;;;;;;28.90;33.50;;;;;;1524495;77;920;-67
2022/07/20 10:48:38;;;;;;;;;;;28.90;33.50;;;;;;1540074;75;693;-67
2022/07/20 10:50:40;;;;;;;;;;;28.90;33.80;;;;;;1534581;75;1917;-66
2022/07/20 10:52:42;;;;;;;;;;;28.90;33.90;;;;;;1540268;77;623;-65
2022/07/20 10:54:44;;;;;;;;;;;28.90;34.00;;;;;;1536283;77;1137;-69
2022/07/20 10:56:46;;;;;;;;;;;28.80;34.00;;;;;;1534845;75;724;-69
2022/07/20 10:58:48;;;;;;;;;;;28.80;34.10;;;;;;1539847;75;1581;-67
2022/07/20 11:00:57;;;;;;;;;;;28.80;34.10;;;;;;1529986;77;665;-68
2022/07/20 11:02:59;;;;;;;;;;;28.70;34.20;;;;;;1534540;75;2060;-68
2022/07/20 11:05:01;;;;;;;;;;;28.70;34.30;;;;;;1535017;75;1158;-68
2022/07/20 11:07:02;;;;;;;;;;;28.80;34.30;;;;;;1531815;75;680;-68
2022/07/20 11:09:04;;;;;;;;;;;28.80;34.30;;;;;;1538254;77;714;-68
2022/07/20 11:11:07;;;;;;;;;;;28.80;34.20;;;;;;1531991;77;730;-69
2022/07/20 11:13:10;;;;;;;;;;;28.80;34.20;;;;;;1542840;76;1577;-67
2022/07/20 11:15:12;;;;;;;;;;;28.70;34.20;;;;;;1544868;76;1147;-68
2022/07/20 11:17:14;;;;;;;;;;;28.80;34.10;;;;;;1528867;76;802;-68
2022/07/20 11:19:16;;;;;;;;;;;28.70;33.90;;;;;;1533724;77;646;-69
2022/07/20 11:21:19;;;;;;;;;;;28.80;33.90;;;;;;1540068;75;704;-68
2022/07/20 11:23:22;;;;;;;;;;;28.70;33.80;;;;;;1510097;77;1926;-68
2022/07/20 11:25:28;;;;;;;;;;;28.70;33.90;;;;;;1535521;76;1096;-69
2022/07/20 11:27:29;;;;;;;;;;;28.70;33.90;;;;;;1542999;75;1480;-67
2022/07/20 11:29:31;;;;;;;;;;;28.70;33.90;;;;;;1537511;77;722;-67
2022/07/20 11:31:33;;;;;;;;;;;28.70;33.90;;;;;;1531644;77;694;-67
2022/07/20 11:33:35;;;;;;;;;;;28.70;34.10;;;;;;1529246;76;1189;-69
2022/07/20 11:35:38;;;;;;;;;;;28.60;34.00;;;;;;1538695;75;753;-68
2022/07/20 11:37:39;;;;;;;;;;;28.70;34.00;;;;;;1540098;75;771;-68
2022/07/20 11:39:41;;;;;;;;;;;28.60;33.90;;;;;;1537672;75;656;-68
2022/07/20 11:41:43;;;;;;;;;;;28.60;33.80;;;;;;1535918;75;1562;-67
2022/07/20 11:43:45;;;;;;;;;;;28.70;33.90;;;;;;1528775;76;1950;-67
2022/07/20 11:45:47;;;;;;;;;;;28.60;33.90;;;;;;1534602;76;747;-69
2022/07/20 11:47:49;;;;;;;;;;;28.50;33.90;;;;;;1539908;77;663;-69
2022/07/20 11:50:04;;;;;;;;;;;28.60;33.90;;;;;;1533374;75;698;-68
2022/07/20 11:52:06;;;;;;;;;;;28.50;33.70;;;;;;1533863;75;738;-68
2022/07/20 11:54:08;;;;;;;;;;;28.60;33.70;;;;;;1538950;77;1150;-67
2022/07/20 11:56:17;;;;;;;;;;;28.50;33.60;;;;;;1539925;75;1377;-69
2022/07/20 11:58:33;;;;;;;;;;;28.50;33.60;;;;;;1542403;75;1796;-68
2022/07/20 12:00:35;;;;;;;;;;;28.50;33.60;;;;;;1532599;77;695;-69
2022/07/20 12:02:37;;;;;;;;;;;28.50;33.50;;;;;;1538033;77;697;-68
2022/07/20 12:04:39;;;;;;;;;;;28.50;33.40;;;;;;1537743;76;1919;-68
2022/07/20 12:06:42;;;;;;;;;;;28.50;33.60;;;;;;1538284;77;649;-66
2022/07/20 12:08:43;;;;;;;;;;;28.50;33.60;;;;;;1537478;75;1577;-67
2022/07/20 12:10:46;;;;;;;;;;;28.50;33.60;;;;;;1541345;75;671;-69
2022/07/20 12:12:49;;;;;;;;;;;28.50;33.50;;;;;;1544240;75;724;-68
2022/07/20 12:14:51;;;;;;;;;;;28.50;33.50;;;;;;1535874;75;1872;-67